RJFN(METAR)
04/24 20:00
METAR RJFN 241100Z 20005KT 9999 FEW020 SCT/// 22/21 Q1006 RMK 1CU020
A2974=
戻る
トップページへ戻る
IMOC Co,.Ltd.